Time;durP1;ratioP1;P1;durP2;ratioP2;P2;SDS_P1;SDS_P2;PMS_P1;PMS_P2;Temp;Humidity;BMP_temperature;BMP_pressure;BME280_temperature;BME280_humidity;BME280_pressure;Samples;Min_cycle;Max_cycle;Signal;HPM_P1;HPM_P2
2021/12/01 00:00:51;;;;;;;0.63;0.20;;;3.70;99.90;;;;;;4978263;28;20109;-91
2021/12/01 00:10:11;;;;;;;;;;;;;;;;;;;;;
2021/12/01 00:12:37;;;;;;;0.20;0.10;;;3.50;99.90;;;;;;5053495;28;20135;-90
2021/12/01 00:15:06;;;;;;;0.57;0.27;;;3.50;99.90;;;;;;5039126;22;20113;-82
2021/12/01 00:17:32;;;;;;;1.17;0.30;;;3.50;99.90;;;;;;4981048;28;20027;-82
2021/12/01 00:19:59;;;;;;;0.40;0.27;;;3.40;99.90;;;;;;4995535;28;20114;-81
2021/12/01 00:22:25;;;;;;;0.10;0.10;;;3.40;99.90;;;;;;4980858;28;20026;-83
2021/12/01 00:24:51;;;;;;;0.60;0.47;;;3.40;99.90;;;;;;4986230;28;20082;-82
2021/12/01 00:27:17;;;;;;;0.17;0.10;;;3.40;99.90;;;;;;4981820;28;20042;-82
2021/12/01 00:29:43;;;;;;;0.93;0.27;;;3.40;99.90;;;;;;4996716;28;20030;-86
2021/12/01 00:32:09;;;;;;;0.73;0.20;;;3.40;99.90;;;;;;4986994;28;20054;-83
2021/12/01 00:34:35;;;;;;;0.53;0.20;;;3.40;99.90;;;;;;4989812;28;20463;-85
2021/12/01 00:37:00;;;;;;;2.30;0.30;;;3.50;99.90;;;;;;4988072;28;20031;-85
2021/12/01 00:39:26;;;;;;;0.10;0.10;;;3.40;99.90;;;;;;5003601;28;20522;-84
2021/12/01 00:41:52;;;;;;;0.83;0.20;;;3.50;99.90;;;;;;5003563;28;20495;-86
2021/12/01 00:44:19;;;;;;;0.40;0.20;;;3.50;99.90;;;;;;5001075;28;20019;-83
2021/12/01 00:47:05;;;;;;;0.50;0.20;;;3.50;99.90;;;;;;5002813;28;20030;-84
2021/12/01 00:49:33;;;;;;;0.77;0.10;;;3.50;99.90;;;;;;5000283;28;20022;-85
2021/12/01 00:51:59;;;;;;;0.67;0.17;;;3.50;99.90;;;;;;4999775;28;20026;-84
2021/12/01 00:54:25;;;;;;;0.50;0.20;;;3.50;99.90;;;;;;5002324;28;20027;-85
2021/12/01 00:56:51;;;;;;;4.33;0.50;;;3.60;99.90;;;;;;5001281;28;20019;-84
2021/12/01 00:59:17;;;;;;;0.47;0.23;;;3.50;99.90;;;;;;4999793;28;20026;-84
2021/12/01 01:01:44;;;;;;;0.83;0.20;;;3.50;99.90;;;;;;5004182;28;20045;-85
2021/12/01 01:04:10;;;;;;;0.67;0.27;;;3.50;99.90;;;;;;5005517;28;20025;-85
2021/12/01 01:06:37;;;;;;;0.40;0.20;;;3.50;99.90;;;;;;4998384;28;20022;-84
2021/12/01 01:09:06;;;;;;;0.90;0.23;;;3.50;99.90;;;;;;5005274;28;20030;-83
2021/12/01 01:17:06;;;;;;;0.37;0.20;;;3.60;99.90;;;;;;5002542;28;20069;-85
2021/12/01 01:19:32;;;;;;;0.20;0.13;;;3.70;99.90;;;;;;5002302;28;20033;-84
2021/12/01 01:22:00;;;;;;;0.60;0.30;;;3.60;99.90;;;;;;5002642;28;20026;-85
2021/12/01 01:24:26;;;;;;;0.63;0.20;;;3.60;99.90;;;;;;4997714;28;20037;-85
2021/12/01 01:26:52;;;;;;;2.97;0.30;;;3.70;99.90;;;;;;4983834;28;20030;-85
2021/12/01 01:29:21;;;;;;;0.53;0.30;;;3.70;99.90;;;;;;4998519;28;20069;-84
2021/12/01 01:31:51;;;;;;;1.80;0.57;;;3.70;99.90;;;;;;4984002;28;20026;-84
2021/12/01 01:34:17;;;;;;;0.80;0.30;;;3.70;99.90;;;;;;4991219;28;20060;-84
2021/12/01 01:36:43;;;;;;;0.27;0.20;;;3.70;99.90;;;;;;4984244;28;20527;-85
2021/12/01 01:39:08;;;;;;;0.90;0.30;;;3.70;99.90;;;;;;4982783;28;20034;-84
2021/12/01 01:41:34;;;;;;;1.17;0.20;;;3.70;99.90;;;;;;4982652;28;20058;-85
2021/12/01 01:44:01;;;;;;;0.97;0.30;;;3.70;99.90;;;;;;4996698;28;20031;-84
2021/12/01 01:46:32;;;;;;;0.63;0.30;;;3.70;99.90;;;;;;5001720;28;20045;-84
2021/12/01 01:49:05;;;;;;;1.73;0.57;;;3.70;99.90;;;;;;5000528;28;20068;-84
2021/12/01 01:51:32;;;;;;;0.83;0.40;;;3.70;99.90;;;;;;5000433;28;20549;-84
2021/12/01 01:53:58;;;;;;;0.50;0.23;;;3.70;99.90;;;;;;4999190;28;20026;-84
2021/12/01 01:56:25;;;;;;;1.00;0.40;;;3.70;99.90;;;;;;4997702;28;20105;-84
2021/12/01 01:58:52;;;;;;;1.77;0.37;;;3.70;99.90;;;;;;5000693;28;20035;-84
2021/12/01 02:01:44;;;;;;;1.43;0.60;;;3.70;99.90;;;;;;5014797;28;20034;-83
2021/12/01 02:04:12;;;;;;;1.33;0.37;;;3.70;99.90;;;;;;5008154;28;20030;-84
2021/12/01 02:06:38;;;;;;;1.57;0.40;;;3.70;99.90;;;;;;4995726;28;20565;-86
2021/12/01 02:09:06;;;;;;;0.47;0.30;;;3.70;99.90;;;;;;4980886;28;20035;-85
2021/12/01 02:11:31;;;;;;;1.43;0.40;;;3.70;99.90;;;;;;4994110;28;20132;-85
2021/12/01 02:13:57;;;;;;;1.10;0.40;;;3.80;99.90;;;;;;5000899;28;20034;-84
2021/12/01 02:16:23;;;;;;;1.27;0.30;;;3.80;99.90;;;;;;5003270;28;20026;-85
2021/12/01 02:18:50;;;;;;;0.80;0.30;;;3.80;99.90;;;;;;5002425;28;20029;-86
2021/12/01 02:21:27;;;;;;;2.87;0.50;;;3.80;99.90;;;;;;4992772;28;20398;-85
2021/12/01 02:23:55;;;;;;;0.77;0.30;;;3.90;99.90;;;;;;5001316;28;20057;-83
2021/12/01 02:26:21;;;;;;;1.47;0.50;;;3.80;99.90;;;;;;5003706;28;20038;-84
2021/12/01 02:28:50;;;;;;;0.70;0.30;;;3.70;99.90;;;;;;5002181;28;20026;-83
2021/12/01 02:31:17;;;;;;;1.27;0.57;;;3.80;99.90;;;;;;4995146;28;20039;-87
2021/12/01 02:33:43;;;;;;;0.90;0.30;;;3.80;99.90;;;;;;4995769;28;20023;-85
2021/12/01 02:36:10;;;;;;;1.17;0.50;;;3.80;99.90;;;;;;4997326;28;20347;-84
2021/12/01 02:38:37;;;;;;;0.77;0.30;;;3.70;99.90;;;;;;4997278;28;20030;-83
2021/12/01 02:41:03;;;;;;;1.27;0.47;;;3.80;99.90;;;;;;4993608;28;20037;-84
2021/12/01 02:43:30;;;;;;;0.70;0.30;;;3.80;99.90;;;;;;4997824;28;20105;-84
2021/12/01 02:45:56;;;;;;;0.80;0.33;;;3.80;99.90;;;;;;4997001;28;20514;-84
2021/12/01 02:48:23;;;;;;;0.73;0.20;;;3.70;99.90;;;;;;4985283;28;20161;-84
2021/12/01 02:50:50;;;;;;;0.97;0.33;;;3.80;99.90;;;;;;4976881;28;20031;-83
2021/12/01 02:53:19;;;;;;;0.43;0.20;;;3.80;99.90;;;;;;4992681;28;20127;-84
2021/12/01 02:55:53;;;;;;;0.50;0.20;;;3.80;99.90;;;;;;4996316;28;20041;-85
2021/12/01 02:58:20;;;;;;;0.93;0.30;;;3.90;99.90;;;;;;4976202;28;20058;-85
2021/12/01 03:00:46;;;;;;;0.50;0.30;;;3.80;99.90;;;;;;4975636;28;20026;-84
2021/12/01 03:03:12;;;;;;;1.33;0.40;;;3.80;99.90;;;;;;4976283;28;20026;-84
2021/12/01 03:05:38;;;;;;;0.70;0.20;;;3.80;99.90;;;;;;4988114;28;20062;-84
2021/12/01 03:08:06;;;;;;;1.27;0.30;;;3.80;99.90;;;;;;4978089;28;20061;-84
2021/12/01 03:10:32;;;;;;;1.83;0.40;;;3.90;99.90;;;;;;4992081;28;20030;-84
2021/12/01 03:12:57;;;;;;;1.07;0.20;;;3.90;99.90;;;;;;4975335;28;20058;-85
2021/12/01 03:15:23;;;;;;;1.13;0.40;;;3.80;99.90;;;;;;4975939;28;20092;-85
2021/12/01 03:17:48;;;;;;;1.20;0.37;;;3.90;99.90;;;;;;4993229;28;20055;-85
2021/12/01 03:20:15;;;;;;;0.60;0.20;;;3.90;99.90;;;;;;4999053;28;20030;-84
2021/12/01 03:22:42;;;;;;;1.27;0.40;;;3.90;99.90;;;;;;4997703;28;20022;-84
2021/12/01 03:25:12;;;;;;;0.67;0.23;;;3.90;99.90;;;;;;5013068;28;20641;-83
2021/12/01 03:27:39;;;;;;;0.77;0.33;;;3.90;99.90;;;;;;4998490;28;20112;-84
2021/12/01 03:30:10;;;;;;;0.63;0.20;;;4.00;99.90;;;;;;4998538;28;20038;-84
2021/12/01 03:32:36;;;;;;;1.00;0.50;;;4.00;99.90;;;;;;4998154;28;20112;-84
2021/12/01 03:35:08;;;;;;;1.73;0.20;;;4.00;99.90;;;;;;4993360;28;20042;-85
2021/12/01 03:37:34;;;;;;;1.67;0.13;;;4.00;99.90;;;;;;4979365;28;20038;-84
2021/12/01 03:40:00;;;;;;;0.67;0.20;;;4.10;99.90;;;;;;4994271;28;20040;-84
2021/12/01 03:42:27;;;;;;;0.97;0.30;;;4.10;99.90;;;;;;4998169;28;20030;-84
2021/12/01 03:44:55;;;;;;;0.90;0.30;;;4.00;99.90;;;;;;4994108;28;20082;-85
2021/12/01 03:47:22;;;;;;;1.37;0.30;;;4.00;99.90;;;;;;4993741;28;20034;-84
2021/12/01 03:49:47;;;;;;;0.73;0.40;;;4.10;99.90;;;;;;4979412;28;20029;-85
2021/12/01 03:52:16;;;;;;;0.50;0.20;;;4.10;99.90;;;;;;4992623;28;20054;-85
2021/12/01 03:54:43;;;;;;;0.60;0.20;;;4.10;99.90;;;;;;4998079;28;20054;-85
2021/12/01 03:57:10;;;;;;;0.50;0.20;;;4.10;99.90;;;;;;4994782;28;20076;-83
2021/12/01 03:59:35;;;;;;;1.13;0.40;;;4.10;99.90;;;;;;4994854;28;20529;-85
2021/12/01 04:02:01;;;;;;;1.93;0.33;;;4.10;99.90;;;;;;4996817;28;20113;-84
2021/12/01 04:04:27;;;;;;;1.03;0.40;;;4.10;99.90;;;;;;4997198;28;20092;-84
2021/12/01 04:06:52;;;;;;;0.77;0.23;;;4.20;99.90;;;;;;4988674;28;20105;-85
2021/12/01 04:09:18;;;;;;;1.57;0.20;;;4.10;99.90;;;;;;4994784;28;20081;-85
2021/12/01 04:11:44;;;;;;;0.40;0.20;;;4.10;99.90;;;;;;4996144;28;20395;-84
2021/12/01 04:14:10;;;;;;;1.20;0.40;;;4.20;99.90;;;;;;4996114;28;20038;-84
2021/12/01 04:16:35;;;;;;;0.60;0.30;;;4.10;99.90;;;;;;4996042;28;20030;-85
2021/12/01 04:19:01;;;;;;;1.40;0.33;;;4.20;99.90;;;;;;4996128;28;20030;-85
2021/12/01 04:21:27;;;;;;;1.60;0.40;;;4.20;99.90;;;;;;4985046;28;20114;-85
2021/12/01 04:23:54;;;;;;;0.90;0.40;;;4.10;99.90;;;;;;5003348;28;20513;-85
2021/12/01 04:26:23;;;;;;;0.83;0.30;;;4.20;99.90;;;;;;5014796;28;20477;-84
2021/12/01 04:28:49;;;;;;;0.67;0.37;;;4.20;99.90;;;;;;4990789;28;20072;-84
2021/12/01 04:31:15;;;;;;;1.43;0.53;;;4.10;99.90;;;;;;4992418;28;20454;-84
2021/12/01 04:33:41;;;;;;;1.33;0.40;;;4.20;99.90;;;;;;4992339;28;20038;-84
2021/12/01 04:36:08;;;;;;;1.23;0.57;;;4.20;99.90;;;;;;4998808;28;20034;-84
2021/12/01 04:38:34;;;;;;;0.30;0.20;;;4.20;99.90;;;;;;5011400;28;20100;-85
2021/12/01 04:40:59;;;;;;;1.83;0.37;;;4.20;99.90;;;;;;5004212;28;20421;-84
2021/12/01 04:43:25;;;;;;;1.50;0.40;;;4.20;99.90;;;;;;5004659;28;20030;-85
2021/12/01 04:45:58;;;;;;;0.50;0.20;;;4.20;99.90;;;;;;4997795;28;20026;-85
2021/12/01 04:48:24;;;;;;;0.93;0.30;;;4.20;99.90;;;;;;4997236;28;20033;-84
2021/12/01 04:50:50;;;;;;;2.20;0.37;;;4.30;99.90;;;;;;4998136;28;20053;-84
2021/12/01 04:53:15;;;;;;;0.83;0.20;;;4.40;99.90;;;;;;4998187;28;20050;-84
2021/12/01 04:55:41;;;;;;;0.90;0.20;;;4.40;99.90;;;;;;4996866;28;20498;-85
2021/12/01 04:58:07;;;;;;;0.90;0.23;;;4.40;99.90;;;;;;4993893;28;20061;-83
2021/12/01 05:00:35;;;;;;;0.60;0.30;;;4.40;99.90;;;;;;4991595;28;20038;-84
2021/12/01 05:03:01;;;;;;;0.20;0.10;;;4.40;99.90;;;;;;4995571;28;20495;-84
2021/12/01 05:05:27;;;;;;;0.50;0.20;;;4.40;99.90;;;;;;4997518;28;20042;-84
2021/12/01 05:07:53;;;;;;;0.60;0.30;;;4.40;99.90;;;;;;4995859;28;20031;-84
2021/12/01 05:10:19;;;;;;;0.60;0.30;;;4.40;99.90;;;;;;4993853;28;20035;-84
2021/12/01 05:12:45;;;;;;;0.57;0.20;;;4.40;99.90;;;;;;4994191;28;20034;-86
2021/12/01 05:15:11;;;;;;;0.43;0.20;;;4.50;99.90;;;;;;4993995;28;20633;-84
2021/12/01 05:17:37;;;;;;;0.50;0.20;;;4.50;99.90;;;;;;4994582;28;20041;-84
2021/12/01 05:20:04;;;;;;;0.40;0.10;;;4.50;99.90;;;;;;4993286;28;20029;-85
2021/12/01 05:22:31;;;;;;;0.63;0.20;;;4.50;99.90;;;;;;4990048;28;20022;-85
2021/12/01 05:24:57;;;;;;;0.40;0.20;;;4.60;99.90;;;;;;4993784;28;20444;-84
2021/12/01 05:27:23;;;;;;;0.37;0.17;;;4.60;99.90;;;;;;4995827;28;20029;-85
2021/12/01 05:29:48;;;;;;;0.30;0.10;;;4.60;99.90;;;;;;4996842;28;20090;-85
2021/12/01 05:32:16;;;;;;;0.13;0.10;;;4.70;99.90;;;;;;4995559;28;20062;-84
2021/12/01 05:34:42;;;;;;;0.57;0.17;;;4.70;99.90;;;;;;5009903;28;20572;-85
2021/12/01 05:37:08;;;;;;;0.43;0.10;;;4.80;99.90;;;;;;4999768;28;20130;-85
2021/12/01 05:39:33;;;;;;;2.30;0.20;;;5.00;99.90;;;;;;5002427;28;20538;-85
2021/12/01 05:42:00;;;;;;;1.07;0.10;;;4.80;99.90;;;;;;4995598;28;20033;-85
2021/12/01 05:44:29;;;;;;;0.10;0.10;;;4.90;99.90;;;;;;4996984;28;20119;-85
2021/12/01 05:46:55;;;;;;;0.47;0.10;;;4.90;99.90;;;;;;4994080;28;20022;-85
2021/12/01 05:49:21;;;;;;;0.17;0.10;;;4.90;99.90;;;;;;4988642;28;20034;-85
2021/12/01 05:51:47;;;;;;;0.50;0.10;;;4.90;99.90;;;;;;4993435;28;20446;-84
2021/12/01 05:54:13;;;;;;;0.20;0.10;;;4.80;99.90;;;;;;4994029;28;20030;-84
2021/12/01 05:56:39;;;;;;;0.70;0.13;;;4.90;99.90;;;;;;4988150;28;20102;-84
2021/12/01 05:59:05;;;;;;;0.20;0.10;;;4.90;99.90;;;;;;4990643;28;20018;-85
2021/12/01 06:01:30;;;;;;;0.60;0.10;;;5.00;99.90;;;;;;4988164;28;20027;-85
2021/12/01 06:03:56;;;;;;;0.30;0.10;;;5.00;99.90;;;;;;4992521;28;20388;-85
2021/12/01 06:06:22;;;;;;;0.63;0.20;;;5.00;99.90;;;;;;4993863;28;20042;-84
2021/12/01 06:08:47;;;;;;;0.40;0.20;;;5.00;99.90;;;;;;4992711;28;20030;-84
2021/12/01 06:11:14;;;;;;;1.43;0.10;;;5.00;99.90;;;;;;4993142;28;20089;-84
2021/12/01 06:13:40;;;;;;;0.77;0.10;;;5.10;99.90;;;;;;4995122;28;20026;-85
2021/12/01 06:16:07;;;;;;;0.00;0.00;;;5.00;99.90;;;;;;4993940;28;20034;-85
2021/12/01 06:18:33;;;;;;;0.17;0.10;;;5.10;99.90;;;;;;4990780;28;20030;-84
2021/12/01 06:20:59;;;;;;;0.40;0.10;;;5.10;99.90;;;;;;4989560;28;20049;-84
2021/12/01 06:23:25;;;;;;;0.27;0.10;;;5.10;99.90;;;;;;4988071;28;20035;-86
2021/12/01 06:25:51;;;;;;;0.47;0.10;;;5.10;99.90;;;;;;4992503;28;20038;-84
2021/12/01 06:28:16;;;;;;;0.83;0.20;;;5.20;99.90;;;;;;4992119;28;20038;-85
2021/12/01 06:30:42;;;;;;;0.63;0.20;;;5.20;99.90;;;;;;4991465;28;20399;-85
2021/12/01 06:33:09;;;;;;;0.63;0.20;;;5.20;99.90;;;;;;4991302;28;20151;-86
2021/12/01 06:35:35;;;;;;;0.00;0.00;;;5.30;99.90;;;;;;4991118;28;20026;-85
2021/12/01 06:38:02;;;;;;;1.03;0.10;;;5.30;99.90;;;;;;4992065;28;20025;-86
2021/12/01 06:40:28;;;;;;;0.80;0.10;;;5.40;99.90;;;;;;4988343;28;20038;-84
2021/12/01 06:42:54;;;;;;;0.20;0.10;;;5.40;99.90;;;;;;4972790;28;20023;-85
2021/12/01 06:45:20;;;;;;;0.53;0.00;;;5.40;99.90;;;;;;4988127;28;20125;-85
2021/12/01 06:47:46;;;;;;;0.10;0.10;;;5.30;99.90;;;;;;4988782;28;20066;-86
2021/12/01 06:50:13;;;;;;;0.73;0.10;;;5.40;99.90;;;;;;4989124;28;20026;-85
2021/12/01 06:52:39;;;;;;;0.47;0.27;;;5.30;99.90;;;;;;4992275;28;20088;-85
2021/12/01 06:55:07;;;;;;;0.70;0.10;;;5.40;99.90;;;;;;4991356;28;20450;-85
2021/12/01 06:57:33;;;;;;;0.43;0.20;;;5.30;99.90;;;;;;4991063;28;20336;-85
2021/12/01 07:00:00;;;;;;;0.03;0.00;;;5.50;99.90;;;;;;4991751;28;20143;-86
2021/12/01 07:02:26;;;;;;;0.60;0.30;;;5.50;99.90;;;;;;4986194;28;20029;-85
2021/12/01 07:04:51;;;;;;;0.10;0.00;;;5.50;99.90;;;;;;4985120;28;20371;-86
2021/12/01 07:07:17;;;;;;;0.53;0.10;;;5.60;99.90;;;;;;4990884;28;20165;-85
2021/12/01 07:09:49;;;;;;;0.97;0.20;;;5.80;99.90;;;;;;4992605;28;20384;-84
2021/12/01 07:12:15;;;;;;;0.00;0.00;;;5.60;99.90;;;;;;4989961;28;20034;-84
2021/12/01 07:14:41;;;;;;;0.50;0.20;;;5.70;99.90;;;;;;4990695;28;20058;-85
2021/12/01 07:17:08;;;;;;;0.30;0.10;;;5.70;99.90;;;;;;4990849;28;20022;-84
2021/12/01 07:19:35;;;;;;;1.60;0.10;;;5.60;99.90;;;;;;4990673;28;20053;-84
2021/12/01 07:22:02;;;;;;;0.10;0.00;;;5.70;99.90;;;;;;4989570;28;20048;-84
2021/12/01 07:24:29;;;;;;;0.30;0.10;;;5.60;99.90;;;;;;4991868;28;20030;-84
2021/12/01 07:26:57;;;;;;;0.30;0.10;;;5.70;99.90;;;;;;4990595;28;20030;-84
2021/12/01 07:29:25;;;;;;;0.13;0.10;;;5.80;99.90;;;;;;4991566;28;20038;-84
2021/12/01 07:31:53;;;;;;;0.20;0.00;;;5.70;99.90;;;;;;4991278;28;20057;-84
2021/12/01 07:34:19;;;;;;;0.00;0.00;;;5.70;99.90;;;;;;4992640;28;20077;-86
2021/12/01 07:36:45;;;;;;;0.47;0.10;;;5.70;99.90;;;;;;4992233;28;20030;-85
2021/12/01 07:39:13;;;;;;;0.13;0.00;;;5.70;99.90;;;;;;4992308;28;20289;-84
2021/12/01 07:41:38;;;;;;;0.50;0.10;;;5.70;99.90;;;;;;4987056;28;20035;-85
2021/12/01 07:44:04;;;;;;;0.17;0.03;;;5.80;99.90;;;;;;4971679;28;20023;-85
2021/12/01 07:46:30;;;;;;;0.00;0.00;;;5.80;99.90;;;;;;4990336;28;20090;-85
2021/12/01 07:48:56;;;;;;;0.10;0.10;;;5.90;99.90;;;;;;4991356;28;20038;-85
2021/12/01 07:51:21;;;;;;;0.00;0.00;;;5.90;99.90;;;;;;4990633;28;20089;-85
2021/12/01 07:53:47;;;;;;;1.70;0.10;;;5.90;99.90;;;;;;4990925;28;20057;-85
2021/12/01 07:56:13;;;;;;;0.03;0.00;;;5.90;99.90;;;;;;4991453;28;20388;-85
2021/12/01 07:58:39;;;;;;;0.40;0.10;;;6.00;99.90;;;;;;4993958;28;20053;-85
2021/12/01 08:01:04;;;;;;;0.13;0.00;;;6.00;99.90;;;;;;5001469;28;20030;-87
2021/12/01 08:03:30;;;;;;;0.27;0.00;;;6.00;99.90;;;;;;5000518;28;20030;-87
2021/12/01 08:05:56;;;;;;;1.67;0.07;;;6.00;99.90;;;;;;4994770;28;20443;-87
2021/12/01 08:08:21;;;;;;;0.00;0.00;;;6.00;99.90;;;;;;4993588;28;20030;-88
2021/12/01 08:10:47;;;;;;;2.00;0.07;;;6.00;99.90;;;;;;4997430;28;20026;-88
2021/12/01 08:13:13;;;;;;;0.00;0.00;;;6.00;99.90;;;;;;4997385;28;20421;-87
2021/12/01 08:15:39;;;;;;;1.47;0.30;;;6.10;99.90;;;;;;5011676;28;20399;-86
2021/12/01 08:18:05;;;;;;;0.10;0.00;;;6.10;99.90;;;;;;5001445;28;20022;-87
2021/12/01 08:20:30;;;;;;;0.10;0.00;;;6.20;99.90;;;;;;4999038;28;20033;-87
2021/12/01 08:22:56;;;;;;;0.30;0.10;;;6.20;99.90;;;;;;5002381;28;20458;-86
2021/12/01 08:25:22;;;;;;;0.00;0.00;;;6.30;99.90;;;;;;5002065;28;20329;-87
2021/12/01 08:27:48;;;;;;;0.07;0.00;;;6.30;99.90;;;;;;5003053;28;20393;-86
2021/12/01 08:30:15;;;;;;;0.10;0.00;;;6.40;99.90;;;;;;5003392;28;20402;-86
2021/12/01 08:32:45;;;;;;;0.00;0.00;;;6.40;99.90;;;;;;4999694;28;20041;-87
2021/12/01 08:35:12;;;;;;;0.00;0.00;;;6.50;99.90;;;;;;5002069;28;20019;-86
2021/12/01 08:37:38;;;;;;;0.20;0.00;;;6.50;99.90;;;;;;5000899;28;20037;-87
2021/12/01 08:40:04;;;;;;;0.43;0.10;;;6.50;99.90;;;;;;5003243;28;20022;-86
2021/12/01 08:42:30;;;;;;;0.20;0.00;;;6.60;99.90;;;;;;5003065;28;20094;-89
2021/12/01 08:44:55;;;;;;;0.10;0.00;;;6.60;99.90;;;;;;5005026;28;20034;-87
2021/12/01 08:47:25;;;;;;;0.20;0.00;;;6.60;99.90;;;;;;5002498;28;20034;-87
2021/12/01 08:49:51;;;;;;;0.00;0.00;;;6.60;99.90;;;;;;5006920;28;20034;-87
2021/12/01 08:52:17;;;;;;;0.03;0.00;;;6.60;99.90;;;;;;5009817;28;20094;-87
2021/12/01 08:54:43;;;;;;;0.10;0.00;;;6.60;99.90;;;;;;5011858;28;20014;-86
2021/12/01 08:57:10;;;;;;;0.00;0.00;;;6.70;99.90;;;;;;5011462;28;20049;-87
2021/12/01 08:59:36;;;;;;;0.93;0.20;;;6.70;99.90;;;;;;5010451;28;20022;-88
2021/12/01 09:02:02;;;;;;;0.27;0.10;;;6.60;99.90;;;;;;5011247;28;20057;-88
2021/12/01 09:04:30;;;;;;;0.20;0.07;;;6.70;99.90;;;;;;5003617;28;20049;-89
2021/12/01 09:06:59;;;;;;;0.23;0.10;;;6.90;99.90;;;;;;4995401;28;20490;-89
2021/12/01 09:09:24;;;;;;;0.00;0.00;;;6.90;99.90;;;;;;4996809;28;20026;-89
2021/12/01 09:11:53;;;;;;;0.00;0.00;;;7.20;99.90;;;;;;4995986;28;20037;-90
2021/12/01 09:14:23;;;;;;;0.00;0.00;;;7.40;99.90;;;;;;5002875;28;20041;-87
2021/12/01 09:16:50;;;;;;;0.10;0.00;;;7.40;99.90;;;;;;5004700;28;20030;-87
2021/12/01 09:19:15;;;;;;;0.20;0.00;;;7.60;99.90;;;;;;5005272;28;20483;-87
2021/12/01 09:21:41;;;;;;;0.00;0.00;;;7.70;99.90;;;;;;5003887;28;20042;-87
2021/12/01 09:24:07;;;;;;;0.00;0.00;;;7.90;99.90;;;;;;5000732;28;20062;-88
2021/12/01 09:26:34;;;;;;;1.20;0.10;;;7.90;99.90;;;;;;4999173;28;20122;-87
2021/12/01 09:29:00;;;;;;;0.27;0.10;;;7.80;99.90;;;;;;4999771;28;20474;-87
2021/12/01 09:31:26;;;;;;;0.00;0.00;;;7.90;99.90;;;;;;5001284;28;20057;-87
2021/12/01 09:36:27;;;;;;;0.10;0.00;;;7.80;99.90;;;;;;5053909;22;20570;-83
2021/12/01 09:38:56;;;;;;;1.30;0.37;;;7.80;99.90;;;;;;5025385;28;20038;-89
2021/12/01 09:41:23;;;;;;;0.00;0.00;;;7.90;99.90;;;;;;5014742;28;20072;-86
2021/12/01 09:44:06;;;;;;;0.00;0.00;;;7.80;99.90;;;;;;5014745;28;20036;-89
2021/12/01 09:46:32;;;;;;;0.00;0.00;;;7.70;99.90;;;;;;5022058;28;20030;-88
2021/12/01 09:49:21;;;;;;;0.00;0.00;;;7.70;99.90;;;;;;4976450;28;20033;-89
2021/12/01 09:52:03;;;;;;;0.30;0.07;;;7.80;99.90;;;;;;4993304;28;20025;-88
2021/12/01 09:54:29;;;;;;;0.10;0.00;;;7.80;99.90;;;;;;5003139;28;20041;-89
2021/12/01 09:57:00;;;;;;;0.30;0.00;;;7.80;99.90;;;;;;4988655;28;20027;-90
2021/12/01 09:59:26;;;;;;;0.20;0.00;;;7.70;99.90;;;;;;4983331;28;20041;-85
2021/12/01 10:02:01;;;;;;;0.00;0.00;;;7.70;99.90;;;;;;4999296;28;20031;-90
2021/12/01 10:04:28;;;;;;;0.73;0.13;;;7.70;99.90;;;;;;4988505;28;20046;-85
2021/12/01 10:07:21;;;;;;;0.30;0.10;;;7.80;99.90;;;;;;4986526;28;20037;-84
2021/12/01 10:13:24;;;;;;;0.07;0.00;;;7.80;99.90;;;;;;4977964;28;20111;-92
2021/12/01 10:16:28;;;;;;;0.33;0.10;;;7.70;99.90;;;;;;4997385;28;20049;-92
2021/12/01 10:18:57;;;;;;;0.10;0.00;;;7.80;99.90;;;;;;4985649;28;20042;-85
2021/12/01 10:21:24;;;;;;;0.00;0.00;;;7.90;99.90;;;;;;4996682;28;20048;-85
2021/12/01 10:24:15;;;;;;;0.00;0.00;;;7.90;99.90;;;;;;4986411;28;20636;-92
2021/12/01 10:27:13;;;;;;;0.00;0.00;;;7.90;99.90;;;;;;4993887;28;20049;-91
2021/12/01 10:30:04;;;;;;;0.40;0.10;;;7.90;99.90;;;;;;4982593;28;20026;-90
2021/12/01 10:32:30;;;;;;;0.10;0.10;;;7.90;99.90;;;;;;5007645;28;20037;-89
2021/12/01 10:35:00;;;;;;;0.20;0.10;;;8.00;99.90;;;;;;4989249;28;20038;-89
2021/12/01 10:38:06;;;;;;;0.37;0.00;;;8.00;99.90;;;;;;4987289;28;20022;-90
2021/12/01 10:41:00;;;;;;;1.30;0.00;;;8.00;99.90;;;;;;4988303;28;20031;-89
2021/12/01 10:43:35;;;;;;;0.03;0.00;;;8.00;99.90;;;;;;5036782;23;20076;-88
2021/12/01 10:47:11;;;;;;;0.03;0.00;;;8.00;99.90;;;;;;5006499;28;20041;-89
2021/12/01 10:49:50;;;;;;;0.20;0.10;;;8.10;99.90;;;;;;4968914;28;20033;-89
2021/12/01 10:52:37;;;;;;;0.77;0.10;;;8.10;99.90;;;;;;4989655;28;20129;-90
2021/12/01 10:55:30;;;;;;;0.57;0.10;;;8.20;99.90;;;;;;4989201;28;20041;-91
2021/12/01 10:58:55;;;;;;;;;;;;;;;;;;;;;
2021/12/01 11:01:24;;;;;;;0.30;0.00;;;8.30;99.90;;;;;;4968692;28;20161;-91
2021/12/01 11:03:51;;;;;;;0.10;0.07;;;8.50;99.90;;;;;;5007567;28;20045;-88
2021/12/01 11:06:22;;;;;;;0.00;0.00;;;8.60;99.90;;;;;;4987780;28;20427;-84
2021/12/01 11:08:55;;;;;;;0.20;0.00;;;8.70;99.90;;;;;;4991880;28;20124;-83
2021/12/01 11:11:22;;;;;;;0.00;0.00;;;8.80;99.90;;;;;;5009178;28;20029;-84
2021/12/01 11:13:50;;;;;;;0.60;0.00;;;8.80;99.90;;;;;;4991501;28;20025;-87
2021/12/01 11:16:42;;;;;;;0.10;0.00;;;8.80;99.90;;;;;;4993845;28;20053;-91
2021/12/01 11:19:08;;;;;;;;;;;8.80;99.90;;;;;;4987759;28;20030;-87
2021/12/01 11:21:48;;;;;;;0.10;0.00;;;8.90;99.90;;;;;;5011142;28;19909;-87
2021/12/01 11:24:41;;;;;;;0.50;0.10;;;8.90;99.90;;;;;;4994005;28;20022;-89
2021/12/01 11:27:44;;;;;;;0.20;0.17;;;8.90;99.90;;;;;;4994180;28;20482;-90
2021/12/01 11:38:43;;;;;;;0.10;0.10;;;8.90;99.90;;;;;;5052560;23;20509;-83
2021/12/01 11:41:10;;;;;;;0.00;0.00;;;8.90;99.90;;;;;;5008560;28;20755;-84
2021/12/01 11:43:42;;;;;;;0.53;0.10;;;8.80;99.90;;;;;;4993348;28;20060;-91
2021/12/01 11:46:45;;;;;;;0.10;0.00;;;8.90;99.90;;;;;;4991981;28;20101;-90
2021/12/01 11:49:51;;;;;;;0.30;0.20;;;8.90;99.90;;;;;;4993139;28;20042;-90
2021/12/01 11:52:23;;;;;;;0.00;0.00;;;8.90;99.90;;;;;;4922975;28;20125;-86
2021/12/01 11:54:48;;;;;;;0.10;0.00;;;8.90;99.90;;;;;;4990583;28;20044;-85
2021/12/01 11:57:14;;;;;;;0.13;0.10;;;8.90;99.90;;;;;;4989841;28;20042;-86
2021/12/01 11:59:49;;;;;;;0.57;0.13;;;9.00;99.90;;;;;;5007502;28;20588;-86
2021/12/01 12:02:23;;;;;;;0.77;0.10;;;8.80;99.90;;;;;;5007258;28;20699;-86
2021/12/01 12:04:57;;;;;;;0.93;0.03;;;8.70;99.90;;;;;;4991561;28;20036;-86
2021/12/01 12:11:45;;;;;;;0.10;0.10;;;8.80;99.90;;;;;;4936205;29;20031;-92
2021/12/01 12:14:23;;;;;;;0.70;0.37;;;8.70;99.90;;;;;;5003522;28;20034;-84
2021/12/01 12:17:06;;;;;;;0.53;0.10;;;8.70;99.90;;;;;;4987373;28;20096;-84
2021/12/01 12:19:44;;;;;;;0.37;0.10;;;8.70;99.90;;;;;;5005080;28;20462;-86
2021/12/01 12:22:41;;;;;;;1.37;0.10;;;8.80;99.90;;;;;;4998301;28;20089;-86
2021/12/01 12:25:11;;;;;;;0.63;0.17;;;8.80;99.90;;;;;;4975672;28;21183;-87
2021/12/01 12:27:43;;;;;;;0.60;0.20;;;8.70;99.90;;;;;;4992058;28;20030;-87
2021/12/01 12:30:11;;;;;;;;;;;8.80;99.90;;;;;;4992763;28;20030;-87
2021/12/01 12:32:37;;;;;;;0.30;0.10;;;8.80;99.90;;;;;;5004058;28;19916;-87
2021/12/01 12:35:08;;;;;;;0.50;0.20;;;8.80;99.90;;;;;;4990822;28;20038;-88
2021/12/01 12:37:37;;;;;;;0.67;0.10;;;8.70;99.90;;;;;;4992184;28;20092;-87
2021/12/01 12:40:29;;;;;;;0.40;0.10;;;8.70;99.90;;;;;;5009790;28;20096;-87
2021/12/01 12:43:13;;;;;;;0.20;0.10;;;8.70;99.90;;;;;;5019810;28;20037;-88
2021/12/01 12:45:42;;;;;;;0.63;0.20;;;8.70;99.90;;;;;;5008701;28;20257;-88
2021/12/01 12:48:48;;;;;;;0.73;0.27;;;8.60;99.90;;;;;;5008951;28;20087;-88
2021/12/01 12:51:26;;;;;;;0.53;0.10;;;8.60;99.90;;;;;;4991104;28;20033;-87
2021/12/01 12:54:03;;;;;;;0.40;0.20;;;8.50;99.90;;;;;;4991754;28;20021;-87
2021/12/01 12:56:39;;;;;;;0.17;0.07;;;8.40;99.90;;;;;;4989722;28;20077;-89
2021/12/01 12:59:23;;;;;;;0.33;0.10;;;8.30;99.90;;;;;;5008403;28;20092;-88
2021/12/01 13:02:10;;;;;;;1.30;0.20;;;8.30;99.90;;;;;;4990864;28;20018;-88
2021/12/01 13:05:02;;;;;;;0.40;0.20;;;8.30;99.90;;;;;;5011892;28;20029;-88
2021/12/01 13:07:39;;;;;;;0.57;0.10;;;8.20;99.90;;;;;;5013670;28;20037;-88
2021/12/01 13:10:18;;;;;;;0.23;0.10;;;8.20;99.90;;;;;;4995179;28;20056;-88
2021/12/01 13:13:07;;;;;;;0.67;0.20;;;8.10;99.90;;;;;;4980875;28;20132;-88
2021/12/01 13:15:38;;;;;;;1.07;0.03;;;8.10;99.90;;;;;;4989406;28;20406;-88
2021/12/01 13:18:17;;;;;;;1.23;0.27;;;8.00;99.90;;;;;;5010541;28;20120;-86
2021/12/01 13:20:55;;;;;;;0.27;0.10;;;7.90;99.90;;;;;;5009858;28;20037;-87
2021/12/01 13:23:22;;;;;;;0.30;0.10;;;8.00;99.90;;;;;;4998747;28;20026;-88
2021/12/01 13:26:00;;;;;;;0.53;0.10;;;8.00;99.90;;;;;;4991391;28;20034;-88
2021/12/01 13:28:48;;;;;;;0.60;0.20;;;7.90;99.90;;;;;;5000229;28;20034;-88
2021/12/01 13:31:16;;;;;;;1.77;0.30;;;8.00;99.90;;;;;;4988936;28;20057;-87
2021/12/01 13:34:14;;;;;;;1.47;0.20;;;7.90;99.90;;;;;;4995606;28;20494;-88
2021/12/01 13:36:45;;;;;;;0.10;0.10;;;7.90;99.90;;;;;;5006196;28;20061;-87
2021/12/01 13:39:12;;;;;;;0.30;0.10;;;7.90;99.90;;;;;;4993387;28;20129;-91
2021/12/01 13:41:41;;;;;;;1.03;0.23;;;7.90;99.90;;;;;;4991591;28;20108;-91
2021/12/01 13:44:25;;;;;;;0.40;0.20;;;7.90;99.90;;;;;;4993402;28;20112;-90
2021/12/01 13:47:26;;;;;;;0.83;0.20;;;7.90;99.90;;;;;;4991535;28;20036;-90